sensor_id;sensor_type;location;lat;lon;timestamp;temperature;humidity
20803;DHT22;10562;-33.856;151.182;2024-01-15T00:01:51;20.30;99.90
20803;DHT22;10562;-33.856;151.182;2024-01-15T00:04:22;20.30;99.90
20803;DHT22;10562;-33.856;151.182;2024-01-15T00:06:53;20.40;99.90
20803;DHT22;10562;-33.856;151.182;2024-01-15T00:09:24;20.50;99.90
20803;DHT22;10562;-33.856;151.182;2024-01-15T00:11:55;20.60;99.90
20803;DHT22;10562;-33.856;151.182;2024-01-15T00:14:28;20.80;99.90
20803;DHT22;10562;-33.856;151.182;2024-01-15T00:16:59;21.00;99.90
20803;DHT22;10562;-33.856;151.182;2024-01-15T00:19:30;21.00;99.90
20803;DHT22;10562;-33.856;151.182;2024-01-15T00:22:02;21.20;99.90
20803;DHT22;10562;-33.856;151.182;2024-01-15T00:24:33;21.20;99.90
20803;DHT22;10562;-33.856;151.182;2024-01-15T00:27:07;21.30;99.90
20803;DHT22;10562;-33.856;151.182;2024-01-15T00:29:40;21.40;99.90
20803;DHT22;10562;-33.856;151.182;2024-01-15T00:32:11;21.50;99.90
20803;DHT22;10562;-33.856;151.182;2024-01-15T00:34:42;21.50;99.90
20803;DHT22;10562;-33.856;151.182;2024-01-15T00:37:15;21.50;99.90
20803;DHT22;10562;-33.856;151.182;2024-01-15T00:39:46;21.60;99.90
20803;DHT22;10562;-33.856;151.182;2024-01-15T00:42:18;21.70;99.90
20803;DHT22;10562;-33.856;151.182;2024-01-15T00:44:51;21.70;99.90
20803;DHT22;10562;-33.856;151.182;2024-01-15T00:47:28;21.80;99.90
20803;DHT22;10562;-33.856;151.182;2024-01-15T00:50:00;21.80;99.90
20803;DHT22;10562;-33.856;151.182;2024-01-15T00:52:33;21.60;99.90
20803;DHT22;10562;-33.856;151.182;2024-01-15T00:55:11;21.40;99.90
20803;DHT22;10562;-33.856;151.182;2024-01-15T00:57:44;21.30;99.90
20803;DHT22;10562;-33.856;151.182;2024-01-15T01:00:20;21.30;99.90
20803;DHT22;10562;-33.856;151.182;2024-01-15T01:02:57;21.20;99.90
20803;DHT22;10562;-33.856;151.182;2024-01-15T01:05:30;21.30;99.90
20803;DHT22;10562;-33.856;151.182;2024-01-15T01:08:06;21.30;99.90
20803;DHT22;10562;-33.856;151.182;2024-01-15T01:10:40;21.30;99.90
20803;DHT22;10562;-33.856;151.182;2024-01-15T01:13:13;21.40;99.90
20803;DHT22;10562;-33.856;151.182;2024-01-15T01:15:47;21.50;99.90
20803;DHT22;10562;-33.856;151.182;2024-01-15T01:18:21;21.60;99.90
20803;DHT22;10562;-33.856;151.182;2024-01-15T01:20:53;21.70;99.90
20803;DHT22;10562;-33.856;151.182;2024-01-15T01:23:28;21.80;99.90
20803;DHT22;10562;-33.856;151.182;2024-01-15T01:26:01;21.90;99.90
20803;DHT22;10562;-33.856;151.182;2024-01-15T01:28:35;22.00;99.90
20803;DHT22;10562;-33.856;151.182;2024-01-15T01:31:12;22.00;99.90
20803;DHT22;10562;-33.856;151.182;2024-01-15T01:33:46;22.00;99.90
20803;DHT22;10562;-33.856;151.182;2024-01-15T01:36:18;22.00;99.90
20803;DHT22;10562;-33.856;151.182;2024-01-15T01:38:56;22.00;99.90
20803;DHT22;10562;-33.856;151.182;2024-01-15T01:41:28;22.00;99.90
20803;DHT22;10562;-33.856;151.182;2024-01-15T01:44:04;22.00;99.90
20803;DHT22;10562;-33.856;151.182;2024-01-15T01:46:39;21.80;99.90
20803;DHT22;10562;-33.856;151.182;2024-01-15T01:49:11;21.80;99.90
20803;DHT22;10562;-33.856;151.182;2024-01-15T01:51:44;21.60;99.90
20803;DHT22;10562;-33.856;151.182;2024-01-15T01:54:17;21.70;99.90
20803;DHT22;10562;-33.856;151.182;2024-01-15T01:56:50;21.70;99.90
20803;DHT22;10562;-33.856;151.182;2024-01-15T01:59:26;21.70;99.90
20803;DHT22;10562;-33.856;151.182;2024-01-15T02:02:04;21.70;99.90
20803;DHT22;10562;-33.856;151.182;2024-01-15T02:04:40;21.80;99.90
20803;DHT22;10562;-33.856;151.182;2024-01-15T02:07:25;21.90;99.90
20803;DHT22;10562;-33.856;151.182;2024-01-15T02:09:58;22.00;99.90
20803;DHT22;10562;-33.856;151.182;2024-01-15T02:12:31;22.10;99.90
20803;DHT22;10562;-33.856;151.182;2024-01-15T02:15:03;22.10;99.90
20803;DHT22;10562;-33.856;151.182;2024-01-15T02:17:58;22.10;99.90
20803;DHT22;10562;-33.856;151.182;2024-01-15T02:20:32;22.10;99.90
20803;DHT22;10562;-33.856;151.182;2024-01-15T02:23:14;22.20;99.90
20803;DHT22;10562;-33.856;151.182;2024-01-15T02:25:51;22.20;99.90
20803;DHT22;10562;-33.856;151.182;2024-01-15T02:28:25;22.30;99.90
20803;DHT22;10562;-33.856;151.182;2024-01-15T02:31:03;22.40;99.90
20803;DHT22;10562;-33.856;151.182;2024-01-15T02:33:37;22.50;99.90
20803;DHT22;10562;-33.856;151.182;2024-01-15T02:36:14;22.70;99.90
20803;DHT22;10562;-33.856;151.182;2024-01-15T02:38:50;22.80;99.90
20803;DHT22;10562;-33.856;151.182;2024-01-15T02:41:22;22.90;99.90
20803;DHT22;10562;-33.856;151.182;2024-01-15T02:44:01;23.00;99.90
20803;DHT22;10562;-33.856;151.182;2024-01-15T02:46:35;23.20;99.90
20803;DHT22;10562;-33.856;151.182;2024-01-15T02:49:07;23.50;99.90
20803;DHT22;10562;-33.856;151.182;2024-01-15T02:51:40;23.70;99.90
20803;DHT22;10562;-33.856;151.182;2024-01-15T02:54:20;23.80;99.90
20803;DHT22;10562;-33.856;151.182;2024-01-15T02:56:53;24.20;99.90
20803;DHT22;10562;-33.856;151.182;2024-01-15T02:59:26;24.10;99.90
20803;DHT22;10562;-33.856;151.182;2024-01-15T03:01:59;24.10;99.90
20803;DHT22;10562;-33.856;151.182;2024-01-15T03:04:36;24.10;99.90
20803;DHT22;10562;-33.856;151.182;2024-01-15T03:07:08;24.00;99.90
20803;DHT22;10562;-33.856;151.182;2024-01-15T03:09:42;24.10;99.90
20803;DHT22;10562;-33.856;151.182;2024-01-15T03:12:16;24.00;99.90
20803;DHT22;10562;-33.856;151.182;2024-01-15T03:14:52;24.00;99.90
20803;DHT22;10562;-33.856;151.182;2024-01-15T03:17:27;24.00;99.90
20803;DHT22;10562;-33.856;151.182;2024-01-15T03:19:59;24.20;99.90
20803;DHT22;10562;-33.856;151.182;2024-01-15T03:22:32;24.40;99.90
20803;DHT22;10562;-33.856;151.182;2024-01-15T03:25:06;24.50;99.90
20803;DHT22;10562;-33.856;151.182;2024-01-15T03:27:38;24.50;99.90
20803;DHT22;10562;-33.856;151.182;2024-01-15T03:30:10;24.30;99.90
20803;DHT22;10562;-33.856;151.182;2024-01-15T03:32:43;24.20;99.90
20803;DHT22;10562;-33.856;151.182;2024-01-15T03:35:15;24.20;99.90
20803;DHT22;10562;-33.856;151.182;2024-01-15T03:37:47;24.10;99.90
20803;DHT22;10562;-33.856;151.182;2024-01-15T03:40:20;24.20;99.90
20803;DHT22;10562;-33.856;151.182;2024-01-15T03:42:53;24.20;99.90
20803;DHT22;10562;-33.856;151.182;2024-01-15T03:45:25;24.20;99.90
20803;DHT22;10562;-33.856;151.182;2024-01-15T03:47:57;24.50;99.90
20803;DHT22;10562;-33.856;151.182;2024-01-15T03:50:29;24.80;99.90
20803;DHT22;10562;-33.856;151.182;2024-01-15T03:53:01;24.90;99.90
20803;DHT22;10562;-33.856;151.182;2024-01-15T03:55:35;25.10;99.90
20803;DHT22;10562;-33.856;151.182;2024-01-15T03:58:07;25.10;99.90
20803;DHT22;10562;-33.856;151.182;2024-01-15T04:00:39;25.30;99.90
20803;DHT22;10562;-33.856;151.182;2024-01-15T04:03:11;25.40;99.90
20803;DHT22;10562;-33.856;151.182;2024-01-15T04:05:42;25.50;99.90
20803;DHT22;10562;-33.856;151.182;2024-01-15T04:08:15;25.30;99.90
20803;DHT22;10562;-33.856;151.182;2024-01-15T04:10:50;25.00;99.90
20803;DHT22;10562;-33.856;151.182;2024-01-15T04:13:21;24.80;99.90
20803;DHT22;10562;-33.856;151.182;2024-01-15T04:15:53;24.30;99.90
20803;DHT22;10562;-33.856;151.182;2024-01-15T04:18:29;24.10;99.90
20803;DHT22;10562;-33.856;151.182;2024-01-15T04:21:02;24.10;99.90
20803;DHT22;10562;-33.856;151.182;2024-01-15T04:23:39;24.10;99.90
20803;DHT22;10562;-33.856;151.182;2024-01-15T04:26:14;24.10;99.90
20803;DHT22;10562;-33.856;151.182;2024-01-15T04:28:47;24.00;99.90
20803;DHT22;10562;-33.856;151.182;2024-01-15T04:31:28;24.10;99.90
20803;DHT22;10562;-33.856;151.182;2024-01-15T04:34:00;24.00;99.90
20803;DHT22;10562;-33.856;151.182;2024-01-15T04:36:38;24.10;99.90
20803;DHT22;10562;-33.856;151.182;2024-01-15T04:39:11;24.10;99.90
20803;DHT22;10562;-33.856;151.182;2024-01-15T04:41:45;23.90;99.90
20803;DHT22;10562;-33.856;151.182;2024-01-15T04:44:16;24.00;99.90
20803;DHT22;10562;-33.856;151.182;2024-01-15T04:46:49;23.90;99.90
20803;DHT22;10562;-33.856;151.182;2024-01-15T04:49:20;24.00;99.90
20803;DHT22;10562;-33.856;151.182;2024-01-15T04:52:00;24.00;99.90
20803;DHT22;10562;-33.856;151.182;2024-01-15T04:54:34;24.00;99.90
20803;DHT22;10562;-33.856;151.182;2024-01-15T04:57:07;23.90;99.90
20803;DHT22;10562;-33.856;151.182;2024-01-15T04:59:39;23.90;99.90
20803;DHT22;10562;-33.856;151.182;2024-01-15T05:02:11;23.80;99.90
20803;DHT22;10562;-33.856;151.182;2024-01-15T05:04:42;23.80;99.90
20803;DHT22;10562;-33.856;151.182;2024-01-15T05:07:13;23.80;99.90
20803;DHT22;10562;-33.856;151.182;2024-01-15T05:09:44;23.70;99.90
20803;DHT22;10562;-33.856;151.182;2024-01-15T05:12:16;23.80;99.90
20803;DHT22;10562;-33.856;151.182;2024-01-15T05:14:47;23.70;99.90
20803;DHT22;10562;-33.856;151.182;2024-01-15T05:17:18;23.60;99.90
20803;DHT22;10562;-33.856;151.182;2024-01-15T05:19:49;23.30;99.90
20803;DHT22;10562;-33.856;151.182;2024-01-15T05:22:19;23.00;99.90
20803;DHT22;10562;-33.856;151.182;2024-01-15T05:24:52;22.70;99.90
20803;DHT22;10562;-33.856;151.182;2024-01-15T05:27:25;22.50;99.90
20803;DHT22;10562;-33.856;151.182;2024-01-15T05:29:55;22.50;99.90
20803;DHT22;10562;-33.856;151.182;2024-01-15T05:32:26;22.50;99.90
20803;DHT22;10562;-33.856;151.182;2024-01-15T05:34:57;22.40;99.90
20803;DHT22;10562;-33.856;151.182;2024-01-15T05:37:28;22.30;99.90
20803;DHT22;10562;-33.856;151.182;2024-01-15T05:39:59;22.10;99.90
20803;DHT22;10562;-33.856;151.182;2024-01-15T05:42:34;22.10;99.90
20803;DHT22;10562;-33.856;151.182;2024-01-15T05:45:05;22.10;99.90
20803;DHT22;10562;-33.856;151.182;2024-01-15T05:47:36;22.20;99.90
20803;DHT22;10562;-33.856;151.182;2024-01-15T05:50:08;22.20;99.90
20803;DHT22;10562;-33.856;151.182;2024-01-15T05:52:38;22.00;99.90
20803;DHT22;10562;-33.856;151.182;2024-01-15T05:55:09;21.60;99.90
20803;DHT22;10562;-33.856;151.182;2024-01-15T05:57:42;21.40;99.90
20803;DHT22;10562;-33.856;151.182;2024-01-15T06:00:13;21.20;99.90
20803;DHT22;10562;-33.856;151.182;2024-01-15T06:02:44;21.30;99.90
20803;DHT22;10562;-33.856;151.182;2024-01-15T06:05:15;21.40;99.90
20803;DHT22;10562;-33.856;151.182;2024-01-15T06:07:46;21.60;99.90
20803;DHT22;10562;-33.856;151.182;2024-01-15T06:10:16;21.70;99.90
20803;DHT22;10562;-33.856;151.182;2024-01-15T06:12:49;21.90;99.90
20803;DHT22;10562;-33.856;151.182;2024-01-15T06:15:20;22.00;99.90
20803;DHT22;10562;-33.856;151.182;2024-01-15T06:17:50;22.20;99.90
20803;DHT22;10562;-33.856;151.182;2024-01-15T06:20:21;22.20;99.90
20803;DHT22;10562;-33.856;151.182;2024-01-15T06:22:52;22.30;99.90
20803;DHT22;10562;-33.856;151.182;2024-01-15T06:25:23;22.30;99.90
20803;DHT22;10562;-33.856;151.182;2024-01-15T06:27:55;22.40;99.90
20803;DHT22;10562;-33.856;151.182;2024-01-15T06:30:26;22.50;99.90
20803;DHT22;10562;-33.856;151.182;2024-01-15T06:32:57;22.50;99.90
20803;DHT22;10562;-33.856;151.182;2024-01-15T06:35:28;22.50;99.90
20803;DHT22;10562;-33.856;151.182;2024-01-15T06:37:59;22.60;99.90
20803;DHT22;10562;-33.856;151.182;2024-01-15T06:40:30;22.60;99.90
20803;DHT22;10562;-33.856;151.182;2024-01-15T06:43:02;22.60;99.90
20803;DHT22;10562;-33.856;151.182;2024-01-15T06:45:33;22.60;99.90
20803;DHT22;10562;-33.856;151.182;2024-01-15T06:48:05;22.60;99.90
20803;DHT22;10562;-33.856;151.182;2024-01-15T06:50:36;22.70;99.90
20803;DHT22;10562;-33.856;151.182;2024-01-15T06:53:07;22.70;99.90
20803;DHT22;10562;-33.856;151.182;2024-01-15T06:55:38;22.70;99.90
20803;DHT22;10562;-33.856;151.182;2024-01-15T06:58:10;22.80;99.90
20803;DHT22;10562;-33.856;151.182;2024-01-15T07:00:41;22.80;99.90
20803;DHT22;10562;-33.856;151.182;2024-01-15T07:03:12;22.90;99.90
20803;DHT22;10562;-33.856;151.182;2024-01-15T07:05:43;23.00;99.90
20803;DHT22;10562;-33.856;151.182;2024-01-15T07:08:13;23.00;99.90
20803;DHT22;10562;-33.856;151.182;2024-01-15T07:10:44;23.00;99.90
20803;DHT22;10562;-33.856;151.182;2024-01-15T07:13:17;22.90;99.90
20803;DHT22;10562;-33.856;151.182;2024-01-15T07:15:47;22.80;99.90
20803;DHT22;10562;-33.856;151.182;2024-01-15T07:18:18;22.80;99.90
20803;DHT22;10562;-33.856;151.182;2024-01-15T07:20:49;22.70;99.90
20803;DHT22;10562;-33.856;151.182;2024-01-15T07:23:20;22.70;99.90
20803;DHT22;10562;-33.856;151.182;2024-01-15T07:25:50;22.70;99.90
20803;DHT22;10562;-33.856;151.182;2024-01-15T07:28:23;22.70;99.90
20803;DHT22;10562;-33.856;151.182;2024-01-15T07:30:54;22.60;99.90
20803;DHT22;10562;-33.856;151.182;2024-01-15T07:33:25;22.60;99.90
20803;DHT22;10562;-33.856;151.182;2024-01-15T07:35:57;22.50;99.90
20803;DHT22;10562;-33.856;151.182;2024-01-15T07:38:27;22.60;99.90
20803;DHT22;10562;-33.856;151.182;2024-01-15T07:40:58;22.50;99.90
20803;DHT22;10562;-33.856;151.182;2024-01-15T07:43:31;22.50;99.90
20803;DHT22;10562;-33.856;151.182;2024-01-15T07:46:02;22.50;99.90
20803;DHT22;10562;-33.856;151.182;2024-01-15T07:48:32;22.40;99.90
20803;DHT22;10562;-33.856;151.182;2024-01-15T07:51:03;22.50;99.90
20803;DHT22;10562;-33.856;151.182;2024-01-15T07:53:35;22.40;99.90
20803;DHT22;10562;-33.856;151.182;2024-01-15T07:56:06;22.40;99.90
20803;DHT22;10562;-33.856;151.182;2024-01-15T07:58:39;22.40;99.90
20803;DHT22;10562;-33.856;151.182;2024-01-15T08:01:10;22.50;99.90
20803;DHT22;10562;-33.856;151.182;2024-01-15T08:03:41;22.40;99.90
20803;DHT22;10562;-33.856;151.182;2024-01-15T08:06:12;22.50;99.90
20803;DHT22;10562;-33.856;151.182;2024-01-15T08:08:42;22.50;99.90
20803;DHT22;10562;-33.856;151.182;2024-01-15T08:11:13;22.50;99.90
20803;DHT22;10562;-33.856;151.182;2024-01-15T08:13:46;22.40;99.90
20803;DHT22;10562;-33.856;151.182;2024-01-15T08:16:16;22.40;99.90
20803;DHT22;10562;-33.856;151.182;2024-01-15T08:18:47;22.40;99.90
20803;DHT22;10562;-33.856;151.182;2024-01-15T08:21:18;22.30;99.90
20803;DHT22;10562;-33.856;151.182;2024-01-15T08:23:49;22.30;99.90
20803;DHT22;10562;-33.856;151.182;2024-01-15T08:26:19;22.20;99.90
20803;DHT22;10562;-33.856;151.182;2024-01-15T08:28:53;22.20;99.90
20803;DHT22;10562;-33.856;151.182;2024-01-15T08:31:24;22.10;99.90
20803;DHT22;10562;-33.856;151.182;2024-01-15T08:33:55;22.00;99.90
20803;DHT22;10562;-33.856;151.182;2024-01-15T08:36:27;22.00;99.90
20803;DHT22;10562;-33.856;151.182;2024-01-15T08:38:58;22.00;99.90
20803;DHT22;10562;-33.856;151.182;2024-01-15T08:41:29;22.00;99.90
20803;DHT22;10562;-33.856;151.182;2024-01-15T08:44:02;21.90;99.90
20803;DHT22;10562;-33.856;151.182;2024-01-15T08:46:35;21.90;99.90
20803;DHT22;10562;-33.856;151.182;2024-01-15T08:49:06;21.80;99.90
20803;DHT22;10562;-33.856;151.182;2024-01-15T08:51:37;21.80;99.90
20803;DHT22;10562;-33.856;151.182;2024-01-15T08:54:07;21.80;99.90
20803;DHT22;10562;-33.856;151.182;2024-01-15T08:56:38;21.80;99.90
20803;DHT22;10562;-33.856;151.182;2024-01-15T08:59:11;21.80;99.90
20803;DHT22;10562;-33.856;151.182;2024-01-15T09:01:42;21.80;99.90
20803;DHT22;10562;-33.856;151.182;2024-01-15T09:04:16;21.70;99.90
20803;DHT22;10562;-33.856;151.182;2024-01-15T09:06:47;21.70;99.90
20803;DHT22;10562;-33.856;151.182;2024-01-15T09:09:18;21.70;99.90
20803;DHT22;10562;-33.856;151.182;2024-01-15T09:11:48;21.70;99.90
20803;DHT22;10562;-33.856;151.182;2024-01-15T09:14:21;21.70;99.90
20803;DHT22;10562;-33.856;151.182;2024-01-15T09:16:52;21.70;99.90
20803;DHT22;10562;-33.856;151.182;2024-01-15T09:19:23;21.70;99.90
20803;DHT22;10562;-33.856;151.182;2024-01-15T09:21:53;21.70;99.90
20803;DHT22;10562;-33.856;151.182;2024-01-15T09:24:24;21.70;99.90
20803;DHT22;10562;-33.856;151.182;2024-01-15T09:26:55;21.70;99.90
20803;DHT22;10562;-33.856;151.182;2024-01-15T09:29:28;21.70;99.90
20803;DHT22;10562;-33.856;151.182;2024-01-15T09:31:58;21.70;99.90
20803;DHT22;10562;-33.856;151.182;2024-01-15T09:34:30;21.70;99.90
20803;DHT22;10562;-33.856;151.182;2024-01-15T09:37:01;21.70;99.90
20803;DHT22;10562;-33.856;151.182;2024-01-15T09:39:32;21.80;99.90
20803;DHT22;10562;-33.856;151.182;2024-01-15T09:42:04;21.80;99.90
20803;DHT22;10562;-33.856;151.182;2024-01-15T09:44:38;21.70;99.90
20803;DHT22;10562;-33.856;151.182;2024-01-15T09:47:09;21.70;99.90
20803;DHT22;10562;-33.856;151.182;2024-01-15T09:49:40;21.70;99.90
20803;DHT22;10562;-33.856;151.182;2024-01-15T09:52:12;21.70;99.90
20803;DHT22;10562;-33.856;151.182;2024-01-15T09:54:45;21.80;99.90
20803;DHT22;10562;-33.856;151.182;2024-01-15T09:57:16;21.90;99.90
20803;DHT22;10562;-33.856;151.182;2024-01-15T09:59:50;21.90;99.90
20803;DHT22;10562;-33.856;151.182;2024-01-15T10:02:22;21.80;99.90
20803;DHT22;10562;-33.856;151.182;2024-01-15T10:04:53;21.70;99.90
20803;DHT22;10562;-33.856;151.182;2024-01-15T10:07:24;21.50;99.90
20803;DHT22;10562;-33.856;151.182;2024-01-15T10:09:56;21.50;99.90
20803;DHT22;10562;-33.856;151.182;2024-01-15T10:12:26;21.50;99.90
20803;DHT22;10562;-33.856;151.182;2024-01-15T10:14:59;21.40;99.90
20803;DHT22;10562;-33.856;151.182;2024-01-15T10:17:30;21.40;99.90
20803;DHT22;10562;-33.856;151.182;2024-01-15T10:20:01;21.40;99.90
20803;DHT22;10562;-33.856;151.182;2024-01-15T10:22:32;21.50;99.90
20803;DHT22;10562;-33.856;151.182;2024-01-15T10:25:03;21.40;99.90
20803;DHT22;10562;-33.856;151.182;2024-01-15T10:27:34;21.30;99.90
20803;DHT22;10562;-33.856;151.182;2024-01-15T10:30:08;21.20;99.90
20803;DHT22;10562;-33.856;151.182;2024-01-15T10:32:38;21.10;99.90
20803;DHT22;10562;-33.856;151.182;2024-01-15T10:35:09;21.10;99.90
20803;DHT22;10562;-33.856;151.182;2024-01-15T10:37:42;20.90;99.90
20803;DHT22;10562;-33.856;151.182;2024-01-15T10:40:14;20.80;99.90
20803;DHT22;10562;-33.856;151.182;2024-01-15T10:42:45;20.70;99.90
20803;DHT22;10562;-33.856;151.182;2024-01-15T10:45:18;20.70;99.90
20803;DHT22;10562;-33.856;151.182;2024-01-15T10:47:49;20.70;99.90
20803;DHT22;10562;-33.856;151.182;2024-01-15T10:50:20;20.60;99.90
20803;DHT22;10562;-33.856;151.182;2024-01-15T10:52:51;20.40;99.90
20803;DHT22;10562;-33.856;151.182;2024-01-15T10:55:24;20.30;99.90
20803;DHT22;10562;-33.856;151.182;2024-01-15T10:57:56;20.30;99.90
20803;DHT22;10562;-33.856;151.182;2024-01-15T11:00:29;20.20;99.90
20803;DHT22;10562;-33.856;151.182;2024-01-15T11:03:02;20.10;99.90
20803;DHT22;10562;-33.856;151.182;2024-01-15T11:05:37;20.00;99.90
20803;DHT22;10562;-33.856;151.182;2024-01-15T11:08:09;19.80;99.90
20803;DHT22;10562;-33.856;151.182;2024-01-15T11:10:41;19.70;99.90
20803;DHT22;10562;-33.856;151.182;2024-01-15T11:13:19;19.50;99.90
20803;DHT22;10562;-33.856;151.182;2024-01-15T11:16:02;19.50;99.90
20803;DHT22;10562;-33.856;151.182;2024-01-15T11:18:36;19.40;99.90
20803;DHT22;10562;-33.856;151.182;2024-01-15T11:21:24;19.40;99.90
20803;DHT22;10562;-33.856;151.182;2024-01-15T11:23:56;19.40;99.90
20803;DHT22;10562;-33.856;151.182;2024-01-15T11:26:37;19.40;99.90
20803;DHT22;10562;-33.856;151.182;2024-01-15T11:29:09;19.40;99.90
20803;DHT22;10562;-33.856;151.182;2024-01-15T11:32:04;19.30;99.90
20803;DHT22;10562;-33.856;151.182;2024-01-15T11:34:55;19.30;99.90
20803;DHT22;10562;-33.856;151.182;2024-01-15T11:37:56;19.30;99.90
20803;DHT22;10562;-33.856;151.182;2024-01-15T11:40:23;19.30;99.90
20803;DHT22;10562;-33.856;151.182;2024-01-15T11:42:54;19.40;99.90
20803;DHT22;10562;-33.856;151.182;2024-01-15T11:45:24;19.40;99.90
20803;DHT22;10562;-33.856;151.182;2024-01-15T11:48:11;19.40;99.90
20803;DHT22;10562;-33.856;151.182;2024-01-15T11:50:42;19.40;99.90
20803;DHT22;10562;-33.856;151.182;2024-01-15T11:53:35;19.50;99.90
20803;DHT22;10562;-33.856;151.182;2024-01-15T11:56:14;19.40;99.90
20803;DHT22;10562;-33.856;151.182;2024-01-15T11:58:46;19.40;99.90
20803;DHT22;10562;-33.856;151.182;2024-01-15T12:01:18;19.50;99.90
20803;DHT22;10562;-33.856;151.182;2024-01-15T12:03:51;19.40;99.90
20803;DHT22;10562;-33.856;151.182;2024-01-15T12:06:22;19.50;99.90
20803;DHT22;10562;-33.856;151.182;2024-01-15T12:09:06;19.50;99.90
20803;DHT22;10562;-33.856;151.182;2024-01-15T12:11:39;19.50;99.90
20803;DHT22;10562;-33.856;151.182;2024-01-15T12:14:14;19.50;99.90
20803;DHT22;10562;-33.856;151.182;2024-01-15T12:16:44;19.60;99.90
20803;DHT22;10562;-33.856;151.182;2024-01-15T12:19:17;19.60;99.90
20803;DHT22;10562;-33.856;151.182;2024-01-15T12:21:50;19.60;99.90
20803;DHT22;10562;-33.856;151.182;2024-01-15T12:24:21;19.70;99.90
20803;DHT22;10562;-33.856;151.182;2024-01-15T12:26:52;19.70;99.90
20803;DHT22;10562;-33.856;151.182;2024-01-15T12:29:23;19.70;99.90
20803;DHT22;10562;-33.856;151.182;2024-01-15T12:31:55;19.80;99.90
20803;DHT22;10562;-33.856;151.182;2024-01-15T12:34:30;19.80;99.90
20803;DHT22;10562;-33.856;151.182;2024-01-15T12:37:00;19.90;99.90
20803;DHT22;10562;-33.856;151.182;2024-01-15T12:39:31;19.90;99.90
20803;DHT22;10562;-33.856;151.182;2024-01-15T12:42:04;20.00;99.90
20803;DHT22;10562;-33.856;151.182;2024-01-15T12:44:35;20.00;99.90
20803;DHT22;10562;-33.856;151.182;2024-01-15T12:47:07;19.90;99.90
20803;DHT22;10562;-33.856;151.182;2024-01-15T12:49:40;19.80;99.90
20803;DHT22;10562;-33.856;151.182;2024-01-15T12:52:10;19.70;99.90
20803;DHT22;10562;-33.856;151.182;2024-01-15T12:54:41;19.60;99.90
20803;DHT22;10562;-33.856;151.182;2024-01-15T12:57:12;19.60;99.90
20803;DHT22;10562;-33.856;151.182;2024-01-15T12:59:43;19.60;99.90
20803;DHT22;10562;-33.856;151.182;2024-01-15T13:02:14;19.50;99.90
20803;DHT22;10562;-33.856;151.182;2024-01-15T13:04:47;19.40;99.90
20803;DHT22;10562;-33.856;151.182;2024-01-15T13:07:17;19.50;99.90
20803;DHT22;10562;-33.856;151.182;2024-01-15T13:09:48;19.50;99.90
20803;DHT22;10562;-33.856;151.182;2024-01-15T13:12:21;19.50;99.90
20803;DHT22;10562;-33.856;151.182;2024-01-15T13:14:52;19.40;99.90
20803;DHT22;10562;-33.856;151.182;2024-01-15T13:17:24;19.40;99.90
20803;DHT22;10562;-33.856;151.182;2024-01-15T13:19:56;19.40;99.90
20803;DHT22;10562;-33.856;151.182;2024-01-15T13:22:27;19.40;99.90
20803;DHT22;10562;-33.856;151.182;2024-01-15T13:25:00;19.40;99.90
20803;DHT22;10562;-33.856;151.182;2024-01-15T13:27:31;19.50;99.90
20803;DHT22;10562;-33.856;151.182;2024-01-15T13:30:02;19.40;99.90
20803;DHT22;10562;-33.856;151.182;2024-01-15T13:32:34;19.40;99.90
20803;DHT22;10562;-33.856;151.182;2024-01-15T13:35:07;19.50;99.90
20803;DHT22;10562;-33.856;151.182;2024-01-15T13:37:41;19.50;99.90
20803;DHT22;10562;-33.856;151.182;2024-01-15T13:40:12;19.60;99.90
20803;DHT22;10562;-33.856;151.182;2024-01-15T13:42:47;19.70;99.90
20803;DHT22;10562;-33.856;151.182;2024-01-15T13:45:20;19.80;99.90
20803;DHT22;10562;-33.856;151.182;2024-01-15T13:47:51;19.90;99.90
20803;DHT22;10562;-33.856;151.182;2024-01-15T13:50:24;20.00;99.90
20803;DHT22;10562;-33.856;151.182;2024-01-15T13:52:55;20.20;99.90
20803;DHT22;10562;-33.856;151.182;2024-01-15T13:55:26;20.20;99.90
20803;DHT22;10562;-33.856;151.182;2024-01-15T13:57:56;20.20;99.90
20803;DHT22;10562;-33.856;151.182;2024-01-15T14:00:28;20.20;99.90
20803;DHT22;10562;-33.856;151.182;2024-01-15T14:02:58;20.10;99.90
20803;DHT22;10562;-33.856;151.182;2024-01-15T14:05:31;20.10;99.90
20803;DHT22;10562;-33.856;151.182;2024-01-15T14:08:02;20.10;99.90
20803;DHT22;10562;-33.856;151.182;2024-01-15T14:10:33;20.20;99.90
20803;DHT22;10562;-33.856;151.182;2024-01-15T14:13:03;20.20;99.90
20803;DHT22;10562;-33.856;151.182;2024-01-15T14:15:34;20.30;99.90
20803;DHT22;10562;-33.856;151.182;2024-01-15T14:18:05;20.30;99.90
20803;DHT22;10562;-33.856;151.182;2024-01-15T14:20:38;20.20;99.90
20803;DHT22;10562;-33.856;151.182;2024-01-15T14:23:08;20.30;99.90
20803;DHT22;10562;-33.856;151.182;2024-01-15T14:25:39;20.30;99.90
20803;DHT22;10562;-33.856;151.182;2024-01-15T14:28:10;20.30;99.90
20803;DHT22;10562;-33.856;151.182;2024-01-15T14:30:41;20.40;99.90
20803;DHT22;10562;-33.856;151.182;2024-01-15T14:33:12;20.40;99.90
20803;DHT22;10562;-33.856;151.182;2024-01-15T14:35:44;20.50;99.90
20803;DHT22;10562;-33.856;151.182;2024-01-15T14:38:15;20.40;99.90
20803;DHT22;10562;-33.856;151.182;2024-01-15T14:40:46;20.40;99.90
20803;DHT22;10562;-33.856;151.182;2024-01-15T14:43:17;20.40;99.90
20803;DHT22;10562;-33.856;151.182;2024-01-15T14:45:47;20.50;99.90
20803;DHT22;10562;-33.856;151.182;2024-01-15T14:48:18;20.60;99.90
20803;DHT22;10562;-33.856;151.182;2024-01-15T14:50:51;20.70;99.90
20803;DHT22;10562;-33.856;151.182;2024-01-15T14:53:22;20.70;99.90
20803;DHT22;10562;-33.856;151.182;2024-01-15T14:55:52;20.80;99.90
20803;DHT22;10562;-33.856;151.182;2024-01-15T14:58:23;20.80;99.90
20803;DHT22;10562;-33.856;151.182;2024-01-15T15:00:54;20.80;99.90
20803;DHT22;10562;-33.856;151.182;2024-01-15T15:03:25;20.80;99.90
20803;DHT22;10562;-33.856;151.182;2024-01-15T15:05:58;20.80;99.90
20803;DHT22;10562;-33.856;151.182;2024-01-15T15:08:29;20.80;99.90
20803;DHT22;10562;-33.856;151.182;2024-01-15T15:11:00;20.90;99.90
20803;DHT22;10562;-33.856;151.182;2024-01-15T15:13:31;20.90;99.90
20803;DHT22;10562;-33.856;151.182;2024-01-15T15:16:03;20.90;99.90
20803;DHT22;10562;-33.856;151.182;2024-01-15T15:18:33;20.90;99.90
20803;DHT22;10562;-33.856;151.182;2024-01-15T15:21:06;20.90;99.90